createdAt,value
2023-03-05T00:01:25.410Z,67.03
2023-03-05T00:03:54.864Z,61.50
2023-03-05T00:06:23.974Z,57.92
2023-03-05T00:08:51.958Z,58.67
2023-03-05T00:11:20.144Z,63.78
2023-03-05T00:13:47.159Z,60.22
2023-03-05T00:16:15.797Z,56.28
2023-03-05T00:18:45.021Z,53.95
2023-03-05T00:21:32.945Z,47.13
2023-03-05T00:24:02.297Z,61.72
2023-03-05T00:26:30.373Z,59.67
2023-03-05T00:28:57.877Z,51.10
2023-03-05T00:31:31.071Z,55.45
2023-03-05T00:34:02.820Z,54.72
2023-03-05T00:36:29.707Z,60.47
2023-03-05T00:38:58.854Z,66.15
2023-03-05T00:41:27.409Z,61.80
2023-03-05T00:43:54.228Z,65.88
2023-03-05T00:46:21.792Z,64.20
2023-03-05T00:48:48.601Z,71.22
2023-03-05T00:51:15.524Z,87.85
2023-03-05T00:53:42.311Z,87.43
2023-03-05T00:56:09.107Z,90.65
2023-03-05T00:58:35.974Z,84.55
2023-03-05T01:01:03.549Z,86.68
2023-03-05T01:03:31.860Z,79.25
2023-03-05T01:05:58.951Z,68.95
2023-03-05T01:08:26.811Z,67.38
2023-03-05T01:10:53.637Z,65.38
2023-03-05T01:13:20.745Z,56.05
2023-03-05T01:15:50.917Z,51.05
2023-03-05T01:18:19.395Z,50.80
2023-03-05T01:20:46.202Z,48.10
2023-03-05T01:23:13.182Z,43.22
2023-03-05T01:25:39.991Z,46.00
2023-03-05T01:28:07.308Z,37.10
2023-03-05T01:30:34.824Z,33.55
2023-03-05T01:33:02.132Z,34.58
2023-03-05T01:35:30.076Z,42.08
2023-03-05T01:37:56.997Z,40.75
2023-03-05T01:40:29.557Z,39.05
2023-03-05T01:43:06.555Z,37.60
2023-03-05T01:45:33.459Z,39.72
2023-03-05T01:48:00.446Z,40.50
2023-03-05T01:50:27.937Z,37.08
2023-03-05T01:53:02.815Z,44.35
2023-03-05T01:55:32.895Z,41.25
2023-03-05T01:58:06.960Z,45.92
2023-03-05T02:00:43.779Z,40.13
2023-03-05T02:03:12.254Z,39.92
2023-03-05T02:05:41.303Z,36.22
2023-03-05T02:08:12.018Z,42.80
2023-03-05T02:13:11.093Z,42.90
2023-03-05T02:15:38.578Z,35.55
2023-03-05T02:18:07.340Z,35.80
2023-03-05T02:20:52.016Z,32.85
2023-03-05T02:23:21.292Z,38.47
2023-03-05T02:25:48.344Z,30.25
2023-03-05T02:28:42.502Z,31.73
2023-03-05T02:31:15.870Z,32.90
2023-03-05T02:33:42.560Z,36.10
2023-03-05T02:36:12.047Z,36.47
2023-03-05T02:38:40.153Z,47.40
2023-03-05T02:41:06.853Z,57.33
2023-03-05T02:43:33.559Z,47.58
2023-03-05T02:46:00.786Z,62.58
2023-03-05T02:48:27.490Z,54.40
2023-03-05T02:50:55.890Z,65.38
2023-03-05T02:53:23.905Z,57.13
2023-03-05T02:55:51.112Z,54.78
2023-03-05T02:58:18.262Z,62.22
2023-03-05T03:00:46.733Z,56.65
2023-03-05T03:03:14.273Z,57.08
2023-03-05T03:05:41.256Z,53.13
2023-03-05T03:08:08.246Z,60.60
2023-03-05T03:10:35.809Z,47.45
2023-03-05T03:13:02.705Z,45.08
2023-03-05T03:15:29.694Z,47.88
2023-03-05T03:17:56.695Z,44.72
2023-03-05T03:20:23.834Z,46.33
2023-03-05T03:22:50.922Z,44.13
2023-03-05T03:25:20.321Z,41.08
2023-03-05T03:27:47.108Z,36.58
2023-03-05T03:30:14.559Z,40.67
2023-03-05T03:32:41.323Z,36.90
2023-03-05T03:35:08.853Z,37.60
2023-03-05T03:37:37.111Z,37.70
2023-03-05T03:40:05.830Z,37.47
2023-03-05T03:42:33.557Z,33.42
2023-03-05T03:45:02.373Z,37.95
2023-03-05T03:47:30.332Z,35.60
2023-03-05T03:49:58.750Z,36.42
2023-03-05T03:52:26.375Z,40.75
2023-03-05T03:54:55.612Z,33.20
2023-03-05T03:57:22.556Z,36.05
2023-03-05T03:59:50.977Z,34.80
2023-03-05T04:02:19.019Z,32.92
2023-03-05T04:04:45.834Z,31.48
2023-03-05T04:07:12.940Z,34.13
2023-03-05T04:09:39.758Z,35.38
2023-03-05T04:12:06.901Z,34.70
2023-03-05T04:14:34.021Z,41.25
2023-03-05T04:17:01.123Z,42.38
2023-03-05T04:19:30.619Z,43.95
2023-03-05T04:21:58.780Z,35.50
2023-03-05T04:24:25.491Z,52.35
2023-03-05T04:26:52.221Z,44.42
2023-03-05T04:29:19.221Z,48.95
2023-03-05T04:31:46.046Z,50.72
2023-03-05T04:34:12.735Z,54.05
2023-03-05T04:36:39.501Z,53.78
2023-03-05T04:39:06.250Z,47.17
2023-03-05T04:41:33.012Z,49.10
2023-03-05T04:44:01.045Z,61.67
2023-03-05T04:46:27.879Z,47.72
2023-03-05T04:48:55.672Z,50.42
2023-03-05T04:51:26.220Z,46.63
2023-03-05T04:53:53.119Z,38.22
2023-03-05T04:56:20.738Z,42.20
2023-03-05T04:58:47.989Z,41.65
2023-03-05T05:01:14.961Z,46.63
2023-03-05T05:03:42.003Z,44.63
2023-03-05T05:06:08.879Z,45.13
2023-03-05T05:08:37.311Z,62.20
2023-03-05T05:11:08.016Z,76.35
2023-03-05T05:16:02.218Z,72.32
2023-03-05T05:18:29.580Z,70.72
2023-03-05T05:20:57.260Z,74.00
2023-03-05T05:23:24.450Z,65.28
2023-03-05T05:26:02.691Z,67.78
2023-03-05T05:28:31.766Z,72.57
2023-03-05T05:30:58.804Z,70.15
2023-03-05T05:33:26.438Z,74.07
2023-03-05T05:35:54.775Z,68.03
2023-03-05T05:38:21.823Z,70.30
2023-03-05T05:40:48.810Z,69.57
2023-03-05T05:43:15.764Z,65.68
2023-03-05T05:45:42.972Z,67.28
2023-03-05T05:48:09.947Z,73.57
2023-03-05T05:50:39.337Z,62.90
2023-03-05T05:53:06.158Z,54.75
2023-03-05T05:55:41.597Z,47.88
2023-03-05T05:58:09.598Z,48.20
2023-03-05T06:00:36.418Z,78.85
2023-03-05T06:03:03.378Z,150.20
2023-03-05T06:05:30.226Z,120.25
2023-03-05T06:07:58.694Z,108.75
2023-03-05T06:10:27.500Z,86.20
2023-03-05T06:13:01.760Z,98.78
2023-03-05T06:15:28.847Z,98.47
2023-03-05T06:18:00.886Z,97.32
2023-03-05T06:20:28.678Z,94.07
2023-03-05T06:22:56.017Z,93.38
2023-03-05T06:25:22.934Z,92.55
2023-03-05T06:27:53.145Z,87.10
2023-03-05T06:30:23.200Z,102.22
2023-03-05T06:32:51.534Z,102.38
2023-03-05T06:35:18.579Z,117.32
2023-03-05T06:37:46.389Z,104.65
2023-03-05T06:40:13.791Z,82.05
2023-03-05T06:42:41.202Z,85.45
2023-03-05T06:45:08.851Z,87.88
2023-03-05T06:47:35.697Z,69.38
2023-03-05T06:50:02.674Z,64.57
2023-03-05T06:52:29.604Z,55.78
2023-03-05T06:54:56.632Z,56.78
2023-03-05T06:57:23.939Z,59.17
2023-03-05T06:59:50.885Z,55.55
2023-03-05T07:02:19.384Z,56.47
2023-03-05T07:04:47.025Z,65.38
2023-03-05T07:07:22.462Z,71.72
2023-03-05T07:10:09.817Z,60.90
2023-03-05T07:16:01.965Z,59.97
2023-03-05T07:18:31.905Z,61.78
2023-03-05T07:21:20.247Z,53.08
2023-03-05T09:39:17.100Z,12.98
2023-03-05T09:42:10.409Z,14.60
2023-03-05T09:45:08.202Z,17.17
2023-03-05T09:47:41.030Z,15.93
2023-03-05T09:50:40.190Z,13.48
2023-03-05T09:53:13.289Z,17.95
2023-03-05T09:56:03.301Z,20.25
2023-03-05T09:59:05.586Z,19.70
2023-03-05T10:01:42.572Z,16.40
2023-03-05T10:04:09.341Z,20.15
2023-03-05T10:06:42.169Z,15.52
2023-03-05T10:09:12.473Z,15.07
2023-03-05T10:11:59.172Z,14.93
2023-03-05T10:14:36.602Z,15.90
2023-03-05T10:17:10.698Z,15.90
2023-03-05T10:20:03.636Z,13.15
2023-03-05T10:22:53.944Z,17.88
2023-03-05T10:25:43.762Z,19.25
2023-03-05T10:28:19.196Z,20.83
2023-03-05T10:31:25.081Z,17.45
2023-03-05T10:34:04.121Z,16.75
2023-03-05T10:37:02.683Z,17.63
2023-03-05T10:39:38.391Z,14.05
2023-03-05T10:42:16.070Z,17.45
2023-03-05T10:44:57.895Z,19.85
2023-03-05T10:47:28.197Z,14.10
2023-03-05T10:52:41.258Z,14.10
2023-03-05T10:55:30.481Z,14.15
2023-03-05T10:57:57.445Z,13.00
2023-03-05T11:00:33.023Z,18.10
2023-03-05T11:03:13.129Z,15.73
2023-03-05T11:05:51.501Z,13.70
2023-03-05T11:08:26.416Z,11.18
2023-03-05T11:11:16.178Z,13.48
2023-03-05T11:13:53.732Z,15.88
2023-03-05T11:16:30.551Z,15.13
2023-03-05T11:19:15.622Z,20.88
2023-03-05T11:21:44.069Z,19.08
2023-03-05T11:24:18.312Z,17.80
2023-03-05T11:26:54.641Z,19.30
2023-03-05T11:29:49.430Z,20.27
2023-03-05T11:32:26.625Z,18.40
2023-03-05T11:34:54.473Z,21.52
2023-03-05T11:37:31.669Z,19.92
2023-03-05T11:40:15.554Z,19.60
2023-03-05T11:42:43.978Z,24.02
2023-03-05T11:45:18.447Z,18.80
2023-03-05T11:47:58.954Z,19.77
2023-03-05T11:50:28.794Z,18.83
2023-03-05T11:53:11.212Z,20.45
2023-03-05T11:55:43.353Z,29.23
2023-03-05T11:58:41.345Z,23.90
2023-03-05T12:01:21.932Z,25.70
2023-03-05T12:04:19.579Z,25.67
2023-03-05T12:07:03.092Z,27.85
2023-03-05T12:10:03.313Z,25.85
2023-03-05T12:13:19.113Z,25.58
2023-03-05T12:16:37.567Z,30.60
2023-03-05T12:19:47.073Z,29.27
2023-03-05T12:22:35.617Z,31.75
2023-03-05T12:26:04.770Z,32.10
2023-03-05T12:28:39.354Z,34.58
2023-03-05T12:31:29.589Z,28.92
2023-03-05T12:33:59.596Z,30.52
2023-03-05T12:36:53.431Z,34.20
2023-03-05T12:44:08.131Z,36.78
2023-03-05T12:46:46.556Z,38.40
2023-03-05T12:49:20.227Z,37.85
2023-03-05T12:51:48.728Z,29.20
2023-03-05T12:54:27.082Z,36.53
2023-03-05T12:57:00.544Z,35.28
2023-03-05T12:59:52.583Z,36.47
2023-03-05T13:02:26.498Z,33.00
2023-03-05T13:04:59.553Z,30.52
2023-03-05T13:07:26.641Z,31.73
2023-03-05T13:09:59.299Z,29.52
2023-03-05T13:12:30.152Z,31.40
2023-03-05T13:15:11.787Z,33.20
2023-03-05T13:17:56.083Z,34.30
2023-03-05T13:20:40.091Z,32.17
2023-03-05T13:23:24.755Z,34.47
2023-03-05T13:26:13.214Z,33.25
2023-03-05T13:28:44.160Z,37.00
2023-03-05T13:31:27.175Z,34.33
2023-03-05T13:34:32.038Z,37.22
2023-03-05T13:37:04.293Z,49.78
2023-03-05T13:39:56.023Z,37.85
2023-03-05T13:42:32.786Z,31.70
2023-03-05T13:45:24.556Z,40.55
2023-03-05T13:47:55.249Z,36.47
2023-03-05T13:52:51.207Z,31.88
2023-03-05T13:55:19.299Z,25.27
2023-03-05T13:57:53.109Z,25.10
2023-03-05T14:00:33.300Z,21.40
2023-03-05T14:03:27.489Z,25.15
2023-03-05T14:05:54.802Z,32.05
2023-03-05T14:08:26.987Z,22.98
2023-03-05T14:10:57.134Z,20.05
2023-03-05T14:13:29.705Z,21.08
2023-03-05T14:16:08.412Z,19.92
2023-03-05T14:18:36.169Z,24.13
2023-03-05T14:21:10.586Z,21.40
2023-03-05T14:23:39.304Z,25.98
2023-03-05T14:26:34.865Z,24.63
2023-03-05T14:29:04.914Z,24.40
2023-03-05T14:31:51.180Z,21.73
2023-03-05T14:34:33.105Z,23.60
2023-03-05T14:37:03.617Z,23.35
2023-03-05T14:39:55.063Z,24.10
2023-03-05T14:42:32.311Z,19.73
2023-03-05T14:45:16.388Z,23.38
2023-03-05T14:47:45.075Z,16.80
2023-03-05T14:50:20.918Z,20.55
2023-03-05T14:52:50.022Z,23.58
2023-03-05T14:55:21.381Z,24.63
2023-03-05T14:57:51.488Z,23.23
2023-03-05T15:00:24.908Z,28.85
2023-03-05T15:02:52.093Z,22.63
2023-03-05T15:05:19.297Z,21.10
2023-03-05T15:07:48.669Z,22.55
2023-03-05T15:10:24.029Z,20.30
2023-03-05T15:12:53.498Z,20.92
2023-03-05T15:15:22.863Z,24.75
2023-03-05T15:17:55.161Z,26.55
2023-03-05T15:20:29.317Z,19.67
2023-03-05T15:22:57.405Z,26.60
2023-03-05T15:25:27.036Z,20.65
2023-03-05T15:27:55.422Z,22.83
2023-03-05T15:30:31.666Z,20.83
2023-03-05T15:33:01.894Z,23.17
2023-03-05T15:35:29.346Z,20.55
2023-03-05T15:37:58.214Z,19.50
2023-03-05T15:40:27.727Z,15.93
2023-03-05T15:42:56.129Z,22.35
2023-03-05T15:45:22.892Z,23.83
2023-03-05T15:47:50.969Z,17.65
2023-03-05T15:50:19.986Z,20.90
2023-03-05T15:52:49.461Z,25.45
2023-03-05T15:55:18.293Z,27.27
2023-03-05T15:57:48.455Z,34.22
2023-03-05T16:00:25.759Z,27.55
2023-03-05T16:02:52.810Z,27.75
2023-03-05T16:05:20.068Z,20.88
2023-03-05T16:07:50.302Z,31.58
2023-03-05T16:10:24.054Z,21.33
2023-03-05T16:12:59.147Z,27.70
2023-03-05T16:15:26.204Z,20.02
2023-03-05T16:17:55.805Z,22.23
2023-03-05T16:20:25.781Z,20.88
2023-03-05T16:22:52.504Z,22.25
2023-03-05T16:25:19.496Z,19.23
2023-03-05T16:27:46.255Z,18.58
2023-03-05T16:30:16.388Z,20.17
2023-03-05T16:32:43.874Z,17.67
2023-03-05T16:35:12.675Z,19.90
2023-03-05T16:37:41.075Z,21.50
2023-03-05T16:40:10.568Z,31.30
2023-03-05T16:42:37.397Z,21.60
2023-03-05T16:45:04.888Z,26.25
2023-03-05T16:47:32.150Z,21.10
2023-03-05T16:50:01.045Z,20.50
2023-03-05T16:52:28.525Z,19.63
2023-03-05T16:54:55.551Z,19.83
2023-03-05T16:57:24.076Z,25.77
2023-03-05T16:59:53.456Z,20.55
2023-03-05T17:02:20.275Z,32.92
2023-03-05T17:04:51.460Z,29.20
2023-03-05T17:07:18.786Z,22.55
2023-03-05T17:09:48.075Z,23.42
2023-03-05T17:12:15.300Z,58.92
2023-03-05T17:14:42.485Z,94.35
2023-03-05T17:17:15.121Z,93.95
2023-03-05T17:19:42.453Z,48.05
2023-03-05T17:22:10.600Z,35.45
2023-03-05T17:24:38.407Z,23.42
2023-03-05T17:27:08.030Z,36.00
2023-03-05T17:29:35.959Z,24.77
2023-03-05T17:32:02.877Z,25.70
2023-03-05T17:34:36.638Z,28.00
2023-03-05T17:37:05.638Z,29.70
2023-03-05T17:39:33.021Z,29.25
2023-03-05T17:42:00.796Z,25.65
2023-03-05T17:44:27.627Z,25.50
2023-03-05T17:46:54.443Z,37.03
2023-03-05T17:49:21.386Z,27.85
2023-03-05T17:51:48.211Z,34.55
2023-03-05T17:54:14.954Z,28.17
2023-03-05T17:56:41.664Z,24.65
2023-03-05T17:59:08.544Z,28.73
2023-03-05T18:01:35.523Z,47.55
2023-03-05T18:04:02.628Z,77.72
2023-03-05T18:06:30.236Z,30.40
2023-03-05T18:08:57.004Z,34.10
2023-03-05T18:11:24.129Z,27.65
2023-03-05T18:13:51.137Z,25.30
2023-03-05T18:16:18.381Z,27.73
2023-03-05T18:18:45.760Z,29.92
2023-03-05T18:21:12.899Z,33.38
2023-03-05T18:23:39.734Z,24.95
2023-03-05T18:26:06.538Z,31.08
2023-03-05T18:28:33.330Z,25.17
2023-03-05T18:31:02.185Z,27.33
2023-03-05T18:33:29.074Z,28.42
2023-03-05T18:35:57.494Z,30.92
2023-03-05T18:38:26.614Z,25.75
2023-03-05T18:40:55.621Z,28.33
2023-03-05T18:43:23.714Z,30.77
2023-03-05T18:45:52.441Z,29.65
2023-03-05T18:48:19.854Z,34.20
2023-03-05T18:50:49.706Z,34.33
2023-03-05T18:53:16.943Z,37.95
2023-03-05T18:55:51.319Z,32.92
2023-03-05T18:58:18.598Z,32.28
2023-03-05T19:00:47.255Z,36.22
2023-03-05T19:03:15.176Z,31.40
2023-03-05T19:05:42.461Z,33.30
2023-03-05T19:08:09.323Z,31.13
2023-03-05T19:10:36.834Z,35.40
2023-03-05T19:13:37.424Z,37.35
2023-03-05T19:16:11.297Z,34.08
2023-03-05T19:19:09.935Z,35.67
2023-03-05T19:21:36.763Z,38.05
2023-03-05T19:24:03.790Z,36.67
2023-03-05T19:26:30.713Z,35.03
2023-03-05T19:28:57.562Z,36.83
2023-03-05T19:31:24.391Z,34.08
2023-03-05T19:33:52.229Z,33.30
2023-03-05T19:40:43.546Z,31.30
2023-03-05T19:43:10.445Z,30.88
2023-03-05T19:45:39.704Z,36.95
2023-03-05T19:48:17.149Z,34.47
2023-03-05T19:50:48.109Z,41.40
2023-03-05T19:53:21.668Z,37.88
2023-03-05T19:55:51.225Z,33.53
2023-03-05T19:58:23.108Z,34.78
2023-03-05T20:00:52.869Z,32.85
2023-03-05T20:03:21.596Z,29.90
2023-03-05T20:05:48.831Z,29.38
2023-03-05T20:08:38.466Z,27.73
2023-03-05T20:11:42.102Z,31.30
2023-03-05T20:14:16.249Z,29.75
2023-03-05T20:16:43.946Z,32.70
2023-03-05T20:19:38.386Z,30.15
2023-03-05T20:22:05.617Z,32.22
2023-03-05T20:25:00.238Z,31.33
2023-03-05T20:27:52.437Z,29.40
2023-03-05T20:30:27.982Z,30.70
2023-03-05T20:33:21.042Z,32.45
2023-03-05T20:39:19.088Z,28.13
2023-03-05T20:42:04.147Z,29.30
2023-03-05T20:45:00.367Z,32.20
2023-03-05T20:48:09.714Z,29.23
2023-03-05T20:50:54.301Z,27.45
2023-03-05T20:53:40.285Z,30.45
2023-03-05T20:56:07.702Z,28.77
2023-03-05T20:58:36.040Z,27.63
2023-03-05T21:01:03.272Z,25.85
2023-03-05T21:03:41.663Z,25.85
2023-03-05T21:06:11.467Z,24.33
2023-03-05T21:08:41.409Z,24.67
2023-03-05T21:14:39.610Z,24.52
2023-03-05T21:17:23.529Z,29.52
2023-03-05T21:20:16.299Z,29.95
2023-03-05T21:22:49.838Z,28.20
2023-03-05T21:26:03.093Z,27.38
2023-03-05T21:28:33.538Z,37.60
2023-03-05T21:31:08.829Z,34.80
2023-03-05T21:33:36.020Z,43.33
2023-03-05T21:36:07.513Z,34.60
2023-03-05T21:38:34.851Z,33.35
2023-03-05T21:41:03.925Z,33.85
2023-03-05T21:43:33.721Z,31.33
2023-03-05T21:46:04.427Z,30.13
2023-03-05T21:48:35.285Z,28.90
2023-03-05T21:52:01.400Z,31.80
2023-03-05T21:54:30.729Z,29.63
2023-03-05T21:56:58.038Z,30.25
2023-03-05T21:59:25.085Z,29.00
2023-03-05T22:01:52.657Z,28.23
2023-03-05T22:04:19.715Z,29.77
2023-03-05T22:06:46.550Z,22.33
2023-03-05T22:09:14.058Z,29.38
2023-03-05T22:11:42.673Z,24.38
2023-03-05T22:14:10.299Z,24.25
2023-03-05T22:16:37.628Z,26.45
2023-03-05T22:19:05.555Z,23.63
2023-03-05T22:21:32.323Z,23.38
2023-03-05T22:23:59.415Z,21.80
2023-03-05T22:26:34.525Z,26.30
2023-03-05T22:29:01.962Z,23.92
2023-03-05T22:31:30.526Z,25.35
2023-03-05T22:34:02.241Z,23.00
2023-03-05T22:36:33.955Z,23.20
2023-03-05T22:39:12.819Z,23.95
2023-03-05T22:41:41.801Z,24.70
2023-03-05T22:44:09.129Z,25.02
2023-03-05T22:46:41.212Z,24.95
2023-03-05T22:49:08.097Z,32.25
2023-03-05T22:51:35.729Z,27.30
2023-03-05T22:54:04.850Z,29.38
2023-03-05T22:56:32.271Z,25.90
2023-03-05T22:58:59.309Z,26.08
2023-03-05T23:01:27.257Z,29.85
2023-03-05T23:04:42.976Z,26.17
2023-03-05T23:07:09.852Z,33.47
2023-03-05T23:09:36.709Z,32.55
2023-03-05T23:12:03.987Z,31.75
2023-03-05T23:14:40.635Z,28.80
2023-03-05T23:17:11.886Z,30.55
2023-03-05T23:19:41.541Z,28.92
2023-03-05T23:22:12.587Z,28.98
2023-03-05T23:24:42.285Z,32.25
2023-03-05T23:27:14.008Z,29.83
2023-03-05T23:30:17.063Z,29.73
2023-03-05T23:32:56.128Z,33.88
2023-03-05T23:35:32.933Z,29.38
2023-03-05T23:38:05.468Z,31.00
2023-03-05T23:40:37.211Z,28.38
2023-03-05T23:43:17.672Z,28.95
2023-03-05T23:45:55.917Z,29.77
2023-03-05T23:48:31.661Z,31.95
2023-03-05T23:51:12.367Z,31.05
2023-03-05T23:56:17.160Z,31.15
2023-03-05T23:58:44.281Z,29.25
